Mexican Cut, RMBL, Colorado Weather observations

Data are for 10 minute period ending at time listed.
 Day   Time   Solar   Ave.   Ave.  Ave.  Vector  Max.   Baro.   Total    
  of    of     Rad.   Air    Rel.  Wind   Wind   Wind  Press.  Precip.   
Year   Day            Temp.  Hum.  Speed  Dir.   Gust                    
2014   (MST)  Kw/m2    F      %     mph   deg.    mph    mb.     in.     
-------------------------------------------------------------------------
 240   12:30   0.61   40.0    92    4.7   308    12.2   680.1    0.00 
 240   12:40   0.93   41.6    89    3.4   316    10.9   680.1    0.00 
 240   12:50   0.84   42.3    87    3.8   355    11.5   680.0    0.00 
 240   13:00   0.62   42.8    86    4.6   336    12.0   680.0    0.00 
 240   13:10   0.65   42.6    79    5.1   303    11.4   680.2    0.00 
 240   13:20   0.65   43.0    79    4.4   324    12.0   680.1    0.00 
 240   13:30   0.80   43.2    78    5.1   304    15.3   680.1    0.00 
 240   13:40   1.15   43.4    74    7.3   316    14.9   680.0    0.00 
 240   13:50   0.91   43.8    72    5.2   331    19.7   680.0    0.00 
 240   14:00   0.97   44.4    71    6.1   299    17.8   679.9    0.00 
 240   14:10   0.81   44.0    70    6.8   296    17.8   680.0    0.00 
 240   14:20   0.59   43.6    72    6.8   294    14.1   680.0    0.00 
 240   14:30   0.50   43.9    73    5.1   309    15.5   680.0    0.00 
 240   14:40   0.75   43.8    75    4.8   295    11.6   680.0    0.00 
 240   14:50   0.26   43.7    75    3.6   286    11.3   680.0    0.00 
 240   15:00   0.36   43.7    75    3.9   280     9.8   679.9    0.00 
 240   15:10   0.20   44.0    75    2.7   276     8.9   680.0    0.00 
 240   15:20   0.14   43.7    75    4.1   280    10.6   680.0    0.00 
 240   15:30   0.16   43.3    77    5.3   300    15.6   680.0    0.00 
 240   15:40   0.20   43.6    74    5.2   288    14.2   680.0    0.00 
 240   15:50   0.11   43.7    73    4.7   278    11.5   680.0    0.00 
 240   16:00   0.11   43.5    74    4.4   295     9.6   680.0    0.00 
 240   16:10   0.18   43.7    76    3.4   311    11.0   680.1    0.00 
 240   16:20   0.13   43.6    76    4.3   314    11.0   679.9    0.00 
 240   16:30   0.11   43.7    75    4.2   302     8.6   679.9    0.00 
 240   16:40   0.06   43.4    80    4.1   333    10.6   680.1    0.00 
 240   16:50   0.19   43.5    79    3.4   328    14.0   680.1    0.00 
 240   17:00   0.18   44.2    76    3.9   326     8.8   680.0    0.00 
 240   17:10   0.23   44.2    76    2.8   295    11.2   680.1    0.00 
 240   17:20   0.07   44.2    73    2.7   322     9.5   680.0    0.00 
 240   17:30   0.06   43.8    76    2.7   338     9.0   680.0    0.00 
 240   17:40   0.07   43.7    79    1.8   350     5.7   679.9    0.00 
 240   17:50   0.04   43.4    79    2.6   336     6.4   679.9    0.00 
 240   18:00   0.03   43.4    71    2.3   248     7.3   679.8    0.00 
 240   18:10   0.03   43.3    73    2.9   323     8.6   680.0    0.00 
 240   18:20   0.01   43.4    72    1.5   267     6.6   679.9    0.00 
 240   18:30   0.01   43.1    75    2.8   307     9.1   680.0    0.00 
 240   18:40   0.01   43.4    74    3.0   290     9.0   680.0    0.00 
 240   18:50   0.00   43.2    74    3.8   288    10.2   679.9    0.00 
 240   19:00   0.00   43.1    74    2.1   213     7.5   679.9    0.00 
 240   19:10   0.00   42.9    74    2.8   299     9.3   680.0    0.00 
 240   19:20   0.00   42.9    75    1.8   320     4.9   680.0    0.00 
 240   19:30   0.00   41.8    81    1.3    72     6.3   680.0    0.00 
 240   19:40   0.00   41.2    84    2.0    42     5.0   680.1    0.00 
 240   19:50   0.00   40.7    85    1.1    37     4.5   680.2    0.00 
 240   20:00   0.00   40.8    85    1.8   344     5.7   680.3    0.00 
 240   20:10   0.00   41.3    81    1.7   358     7.1   680.4    0.00 
 240   20:20   0.00   41.2    82    2.5   348     7.9   680.4    0.00 
 240   20:30   0.00   42.0    78    2.7   346     8.0   680.5    0.00 
 240   20:40   0.00   41.8    80    2.1   334     5.8   680.6    0.00 
 240   20:50   0.00   41.2    82    1.7   346     6.5   680.6    0.00 
 240   21:00   0.00   41.1    83    2.6     4     6.0   680.6    0.00 
 240   21:10   0.00   41.2    82    2.3   340     6.4   680.6    0.00 
 240   21:20   0.00   41.9    80    2.1    12    10.4   680.5    0.00 
 240   21:30   0.00   41.9    80    2.7   324     8.3   680.5    0.00 
 240   21:40   0.00   42.1    78    2.4   297     9.1   680.5    0.00 
 240   21:50   0.00   42.2    77    2.7   297     7.9   680.5    0.00 
 240   22:00   0.00   42.5    76    4.4   312    11.3   680.5    0.00 
 240   22:10   0.00   42.5    77    3.1   324     7.6   680.6    0.00 
 240   22:20   0.00   41.7    81    2.8   329     6.6   680.4    0.00 
 240   22:30   0.00   41.6    80    1.9   330     7.5   680.4    0.00 
 240   22:40   0.00   41.9    78    1.7    30     6.4   680.4    0.00 
 240   22:50   0.00   41.8    79    0.9    76     3.8   680.4    0.00 
 240   23:00   0.00   41.1    81    1.2     0     4.2   680.4    0.00 
 240   23:10   0.00   40.4    85    2.0   316     4.5   680.4    0.00 
 240   23:20   0.00   40.3    85    1.5   316     5.2   680.3    0.00 
 240   23:30   0.00   40.6    81    1.5   287     4.7   680.3    0.00 
 240   23:40   0.00   40.2    82    0.8    17     3.1   680.4    0.00 
 240   23:50   0.00   40.3    81    2.7   340     5.6   680.4    0.00 
 241    0:00   0.00   40.6    80    1.4   330     5.6   680.3    0.00 
 241    0:10   0.00   40.6    81    1.2   339     3.9   680.3    0.00 
 241    0:20   0.00   41.0    79    2.3   296     6.1   680.2    0.00 
 241    0:30   0.00   41.0    79    1.6   293     4.8   680.1    0.00 
 241    0:40   0.00   40.6    80    0.6   312     3.2   680.1    0.00 
 241    0:50   0.00   39.8    83    1.6   294     5.0   680.1    0.00 
 241    1:00   0.00   40.3    81    1.1   267     3.0   680.0    0.00 
 241    1:10   0.00   39.6    83    0.6   325     3.3   680.0    0.00 
 241    1:20   0.00   39.1    86    2.0   336     5.3   680.0    0.00 
 241    1:30   0.00   39.6    84    1.7   299     5.7   680.0    0.00 
 241    1:40   0.00   40.2    81    1.5   315     5.3   679.9    0.00 
 241    1:50   0.00   39.9    82    2.6   321     6.7   679.9    0.00 
 241    2:00   0.00   39.6    82    1.1   332     5.6   679.9    0.00 
 241    2:10   0.00   39.7    81    1.2   333     3.8   679.9    0.00 
 241    2:20   0.00   39.8    82    3.7   347     7.8   679.9    0.00 
 241    2:30   0.00   39.8    82    2.6   346     8.0   679.9    0.00 
 241    2:40   0.00   39.9    80    1.3   306     6.0   679.8    0.00 
 241    2:50   0.00   39.9    80    0.7   283     3.0   679.8    0.00 
 241    3:00   0.00   39.8    79    1.9   272     5.1   679.8    0.00 
 241    3:10   0.00   40.5    76    1.6   280     4.0   679.8    0.00 
 241    3:20   0.00   40.3    76    1.9   287     5.1   679.8    0.00 
 241    3:30   0.00   39.7    76    1.8   281     4.6   679.8    0.00 
 241    3:40   0.00   40.3    72    2.4   284     6.9   679.8    0.00 
 241    3:50   0.00   40.8    70    2.8   285     6.8   679.8    0.00 
 241    4:00   0.00   41.4    67    3.0   294     6.9   679.8    0.00 
 241    4:10   0.00   41.6    66    2.5   299     6.6   679.8    0.00 
 241    4:20   0.00   41.7    66    2.3   329     7.0   679.8    0.00 
 241    4:30   0.00   41.1    69    2.6   331     6.8   679.8    0.00 
 241    4:40   0.00   40.6    71    1.7   303     5.9   679.8    0.00 
 241    4:50   0.00   40.7    71    2.5   339     7.7   679.8    0.00 
 241    5:00   0.00   39.9    75    1.8   344     7.2   679.9    0.00 
 241    5:10   0.00   39.7    76    3.2   338     6.8   680.0    0.00 
 241    5:20   0.00   39.6    78    1.6   306     5.2   680.0    0.00 
 241    5:30   0.00   39.9    73    2.1   298     5.8   680.0    0.00 
 241    5:40   0.00   40.8    70    2.8   305     7.2   680.1    0.00 
 241    5:50   0.01   41.5    68    3.3   310     8.2   680.1    0.00 
 241    6:00   0.01   41.6    68    3.6   290     8.6   680.2    0.00 
 241    6:10   0.02   41.6    68    3.2   297     6.5   680.3    0.00 
 241    6:20   0.02   41.8    68    2.6   289     5.9   680.3    0.00 
 241    6:30   0.02   41.7    67    2.5   294     6.2   680.3    0.00 
 241    6:40   0.05   41.9    66    2.4   307     7.0   680.3    0.00 
 241    6:50   0.14   43.5    64    1.9   313     5.5   680.3    0.00 
 241    7:00   0.18   44.5    63    3.7   342     8.2   680.3    0.00 
 241    7:10   0.17   44.4    64    3.6   338     5.9   680.3    0.00 
 241    7:20   0.24   45.2    58    4.3   349     8.3   680.1    0.00 
 241    7:30   0.27   45.6    58    4.0   340    11.2   680.1    0.00 
 241    7:40   0.31   46.5    59    2.1    11     6.0   680.1    0.00 
 241    7:50   0.35   46.8    60    3.0   354     7.7   680.2    0.00 
 241    8:00   0.39   46.7    60    4.1   348     9.9   680.3    0.00 
 241    8:10   0.42   46.4    61    2.8   324     8.9   680.4    0.00 
 241    8:20   0.46   47.7    58    2.6   350     7.9   680.4    0.00 
 241    8:30   0.50   48.0    54    3.7     9    10.1   680.4    0.00 
 241    8:40   0.53   47.5    54    3.4   360     9.3   680.5    0.00 
 241    8:50   0.55   48.1    55    2.7   348     6.8   680.5    0.00 
 241    9:00   0.60   47.8    52    3.2    15     7.1   680.7    0.00 
 241    9:10   0.63   47.6    50    2.9   330     6.9   680.7    0.00 
 241    9:20   0.67   47.6    49    4.2   355    10.9   680.7    0.00 
 241    9:30   0.70   48.7    47    2.4     1     7.0   680.7    0.00 
 241    9:40   0.73   48.9    48    2.2   349     7.0   680.7    0.00 
 241    9:50   0.76   49.2    47    3.3    45     8.3   680.7    0.00 
 241   10:00   0.78   48.7    46    3.5   309     6.4   680.7    0.00 
 241   10:10   0.67   48.9    46    2.8   336     7.7   680.8    0.00 
 241   10:20   0.84   50.0    44    2.9   313     7.5   680.8    0.00 
 241   10:30   0.86   49.7    40    4.8   312     9.9   680.8    0.00 
 241   10:40   0.88   50.0    39    3.1   336     6.9   680.8    0.00 
 241   10:50   0.67   51.2    41    2.7   293    12.8   680.8    0.00 
 241   11:00   0.56   49.8    42    3.8   335     9.4   680.9    0.00 
 241   11:10   0.97   50.4    43    3.7   336     8.3   680.8    0.00 
 241   11:20   0.49   50.3    40    3.0   285     7.1   680.7    0.00 
 241   11:30   0.95   50.4    42    1.5   331     4.3   680.7    0.00 
 241   11:40   0.34   51.0    44    2.9   313     6.6   680.7    0.00 
 241   11:50   0.89   50.6    44    4.5   271    12.3   680.7    0.00 
 241   12:00   0.54   51.4    40    3.7   318    11.5   680.7    0.00 
 241   12:10   0.97   51.2    40    3.3   322     9.9   680.6    0.00 
 241   12:20   1.06   51.7    41    3.4   308     9.1   680.5    0.00 

Return to Mexican Cut, RMBL, Colorado graphs page.


Western Regional Climate Center,wrcc@dri.edu